sensor_id;sensor_type;location;lat;lon;timestamp;P1;durP1;ratioP1;P2;durP2;ratioP2
49450;SDS011;35336;48.400;10.886;2023-02-15T00:00:10;19.50;;;12.23;;
49450;SDS011;35336;48.400;10.886;2023-02-15T00:00:26;17.98;;;11.88;;
49450;SDS011;35336;48.400;10.886;2023-02-15T00:00:41;16.27;;;11.45;;
49450;SDS011;35336;48.400;10.886;2023-02-15T00:01:09;17.93;;;11.87;;
49450;SDS011;35336;48.400;10.886;2023-02-15T00:01:25;20.45;;;12.07;;
49450;SDS011;35336;48.400;10.886;2023-02-15T00:01:42;23.00;;;12.00;;
49450;SDS011;35336;48.400;10.886;2023-02-15T00:01:58;24.95;;;12.57;;
49450;SDS011;35336;48.400;10.886;2023-02-15T00:02:14;21.83;;;12.43;;
49450;SDS011;35336;48.400;10.886;2023-02-15T00:02:29;19.53;;;12.00;;
49450;SDS011;35336;48.400;10.886;2023-02-15T00:02:45;24.53;;;12.67;;
49450;SDS011;35336;48.400;10.886;2023-02-15T00:03:00;35.58;;;12.95;;
49450;SDS011;35336;48.400;10.886;2023-02-15T00:03:16;32.17;;;12.10;;
49450;SDS011;35336;48.400;10.886;2023-02-15T00:03:31;23.67;;;11.75;;
49450;SDS011;35336;48.400;10.886;2023-02-15T00:03:49;20.97;;;12.30;;
49450;SDS011;35336;48.400;10.886;2023-02-15T00:04:05;31.40;;;12.50;;
49450;SDS011;35336;48.400;10.886;2023-02-15T00:04:23;28.17;;;12.50;;
49450;SDS011;35336;48.400;10.886;2023-02-15T00:04:39;19.30;;;12.55;;
49450;SDS011;35336;48.400;10.886;2023-02-15T00:04:55;19.48;;;13.02;;
49450;SDS011;35336;48.400;10.886;2023-02-15T00:05:10;29.60;;;13.03;;
49450;SDS011;35336;48.400;10.886;2023-02-15T00:05:25;45.67;;;13.20;;
49450;SDS011;35336;48.400;10.886;2023-02-15T00:05:41;45.30;;;12.77;;
49450;SDS011;35336;48.400;10.886;2023-02-15T00:05:56;34.37;;;12.80;;
49450;SDS011;35336;48.400;10.886;2023-02-15T00:06:12;39.70;;;13.40;;
49450;SDS011;35336;48.400;10.886;2023-02-15T00:06:27;32.30;;;12.87;;
49450;SDS011;35336;48.400;10.886;2023-02-15T00:06:43;22.42;;;13.18;;
49450;SDS011;35336;48.400;10.886;2023-02-15T00:06:58;27.20;;;13.65;;
49450;SDS011;35336;48.400;10.886;2023-02-15T00:07:14;24.93;;;12.83;;
49450;SDS011;35336;48.400;10.886;2023-02-15T00:07:31;17.15;;;12.20;;
49450;SDS011;35336;48.400;10.886;2023-02-15T00:07:46;20.07;;;12.93;;
49450;SDS011;35336;48.400;10.886;2023-02-15T00:08:02;20.85;;;12.68;;
49450;SDS011;35336;48.400;10.886;2023-02-15T00:08:17;20.17;;;12.53;;
49450;SDS011;35336;48.400;10.886;2023-02-15T00:08:32;20.73;;;13.00;;
49450;SDS011;35336;48.400;10.886;2023-02-15T00:08:48;23.25;;;13.45;;
49450;SDS011;35336;48.400;10.886;2023-02-15T00:09:03;19.42;;;13.40;;
49450;SDS011;35336;48.400;10.886;2023-02-15T00:09:19;18.30;;;13.50;;
49450;SDS011;35336;48.400;10.886;2023-02-15T00:09:34;19.63;;;13.18;;
49450;SDS011;35336;48.400;10.886;2023-02-15T00:09:50;33.70;;;11.87;;
49450;SDS011;35336;48.400;10.886;2023-02-15T00:10:05;33.73;;;11.50;;
49450;SDS011;35336;48.400;10.886;2023-02-15T00:10:21;28.58;;;12.70;;
49450;SDS011;35336;48.400;10.886;2023-02-15T00:10:37;29.17;;;12.83;;
49450;SDS011;35336;48.400;10.886;2023-02-15T00:10:52;17.80;;;12.23;;
49450;SDS011;35336;48.400;10.886;2023-02-15T00:11:08;20.85;;;12.07;;
49450;SDS011;35336;48.400;10.886;2023-02-15T00:11:26;25.38;;;12.32;;
49450;SDS011;35336;48.400;10.886;2023-02-15T00:11:41;26.20;;;12.87;;
49450;SDS011;35336;48.400;10.886;2023-02-15T00:11:57;26.77;;;12.93;;
49450;SDS011;35336;48.400;10.886;2023-02-15T00:12:12;22.00;;;12.10;;
49450;SDS011;35336;48.400;10.886;2023-02-15T00:12:28;21.77;;;12.00;;
49450;SDS011;35336;48.400;10.886;2023-02-15T00:12:43;25.73;;;13.07;;
49450;SDS011;35336;48.400;10.886;2023-02-15T00:12:59;25.20;;;13.00;;
49450;SDS011;35336;48.400;10.886;2023-02-15T00:13:15;36.80;;;13.05;;
49450;SDS011;35336;48.400;10.886;2023-02-15T00:13:30;50.33;;;13.37;;
49450;SDS011;35336;48.400;10.886;2023-02-15T00:13:45;55.80;;;13.23;;
49450;SDS011;35336;48.400;10.886;2023-02-15T00:14:01;41.57;;;12.93;;
49450;SDS011;35336;48.400;10.886;2023-02-15T00:14:20;22.30;;;12.40;;
49450;SDS011;35336;48.400;10.886;2023-02-15T00:14:37;24.30;;;12.27;;
49450;SDS011;35336;48.400;10.886;2023-02-15T00:14:52;18.23;;;12.30;;
49450;SDS011;35336;48.400;10.886;2023-02-15T00:15:07;21.90;;;12.47;;
49450;SDS011;35336;48.400;10.886;2023-02-15T00:15:23;29.20;;;12.93;;
49450;SDS011;35336;48.400;10.886;2023-02-15T00:15:38;22.25;;;11.90;;
49450;SDS011;35336;48.400;10.886;2023-02-15T00:15:53;23.70;;;12.07;;
49450;SDS011;35336;48.400;10.886;2023-02-15T00:16:10;36.70;;;13.37;;
49450;SDS011;35336;48.400;10.886;2023-02-15T00:16:26;27.77;;;13.10;;
49450;SDS011;35336;48.400;10.886;2023-02-15T00:16:43;23.70;;;12.50;;
49450;SDS011;35336;48.400;10.886;2023-02-15T00:16:58;28.63;;;12.77;;
49450;SDS011;35336;48.400;10.886;2023-02-15T00:17:14;29.77;;;13.70;;
49450;SDS011;35336;48.400;10.886;2023-02-15T00:17:29;29.67;;;13.73;;
49450;SDS011;35336;48.400;10.886;2023-02-15T00:17:44;25.53;;;13.27;;
49450;SDS011;35336;48.400;10.886;2023-02-15T00:18:00;22.17;;;12.70;;
49450;SDS011;35336;48.400;10.886;2023-02-15T00:18:15;29.47;;;13.20;;
49450;SDS011;35336;48.400;10.886;2023-02-15T00:18:30;31.20;;;13.33;;
49450;SDS011;35336;48.400;10.886;2023-02-15T00:18:46;24.40;;;13.33;;
49450;SDS011;35336;48.400;10.886;2023-02-15T00:19:01;20.73;;;12.98;;
49450;SDS011;35336;48.400;10.886;2023-02-15T00:19:18;27.88;;;12.70;;
49450;SDS011;35336;48.400;10.886;2023-02-15T00:19:34;32.42;;;13.23;;
49450;SDS011;35336;48.400;10.886;2023-02-15T00:19:49;25.97;;;13.33;;
49450;SDS011;35336;48.400;10.886;2023-02-15T00:20:05;24.63;;;13.52;;
49450;SDS011;35336;48.400;10.886;2023-02-15T00:20:21;25.83;;;13.05;;
49450;SDS011;35336;48.400;10.886;2023-02-15T00:20:36;25.47;;;12.43;;
49450;SDS011;35336;48.400;10.886;2023-02-15T00:20:51;24.80;;;12.83;;
49450;SDS011;35336;48.400;10.886;2023-02-15T00:21:07;22.70;;;13.13;;
49450;SDS011;35336;48.400;10.886;2023-02-15T00:21:24;24.23;;;13.20;;
49450;SDS011;35336;48.400;10.886;2023-02-15T00:21:39;32.23;;;13.80;;
49450;SDS011;35336;48.400;10.886;2023-02-15T00:21:55;32.80;;;13.80;;
49450;SDS011;35336;48.400;10.886;2023-02-15T00:22:10;22.03;;;12.97;;
49450;SDS011;35336;48.400;10.886;2023-02-15T00:22:25;19.07;;;13.03;;
49450;SDS011;35336;48.400;10.886;2023-02-15T00:22:40;24.38;;;13.30;;
49450;SDS011;35336;48.400;10.886;2023-02-15T00:22:56;24.83;;;13.07;;
49450;SDS011;35336;48.400;10.886;2023-02-15T00:23:11;22.00;;;13.33;;
49450;SDS011;35336;48.400;10.886;2023-02-15T00:23:26;23.60;;;13.60;;
49450;SDS011;35336;48.400;10.886;2023-02-15T00:23:42;24.17;;;13.23;;
49450;SDS011;35336;48.400;10.886;2023-02-15T00:23:57;19.57;;;12.47;;
49450;SDS011;35336;48.400;10.886;2023-02-15T00:24:15;23.95;;;12.63;;
49450;SDS011;35336;48.400;10.886;2023-02-15T00:24:32;20.27;;;12.70;;
49450;SDS011;35336;48.400;10.886;2023-02-15T00:24:47;18.50;;;12.93;;
49450;SDS011;35336;48.400;10.886;2023-02-15T00:25:03;19.40;;;12.80;;
49450;SDS011;35336;48.400;10.886;2023-02-15T00:25:18;21.63;;;12.65;;
49450;SDS011;35336;48.400;10.886;2023-02-15T00:25:33;18.87;;;12.53;;
49450;SDS011;35336;48.400;10.886;2023-02-15T00:25:49;18.60;;;12.27;;
49450;SDS011;35336;48.400;10.886;2023-02-15T00:26:08;18.53;;;11.70;;
49450;SDS011;35336;48.400;10.886;2023-02-15T00:26:25;22.75;;;11.82;;
49450;SDS011;35336;48.400;10.886;2023-02-15T00:26:41;16.83;;;12.00;;
49450;SDS011;35336;48.400;10.886;2023-02-15T00:26:58;20.77;;;11.95;;
49450;SDS011;35336;48.400;10.886;2023-02-15T00:27:13;22.87;;;12.00;;
49450;SDS011;35336;48.400;10.886;2023-02-15T00:27:28;23.90;;;12.48;;
49450;SDS011;35336;48.400;10.886;2023-02-15T00:27:44;28.17;;;12.67;;
49450;SDS011;35336;48.400;10.886;2023-02-15T00:27:59;22.10;;;12.00;;
49450;SDS011;35336;48.400;10.886;2023-02-15T00:28:15;18.17;;;12.15;;
49450;SDS011;35336;48.400;10.886;2023-02-15T00:28:30;34.85;;;12.68;;
49450;SDS011;35336;48.400;10.886;2023-02-15T00:28:46;46.75;;;12.40;;
49450;SDS011;35336;48.400;10.886;2023-02-15T00:29:02;37.33;;;12.33;;
49450;SDS011;35336;48.400;10.886;2023-02-15T00:29:17;55.22;;;12.88;;
49450;SDS011;35336;48.400;10.886;2023-02-15T00:29:34;56.00;;;12.88;;
49450;SDS011;35336;48.400;10.886;2023-02-15T00:29:49;32.22;;;12.52;;
49450;SDS011;35336;48.400;10.886;2023-02-15T00:30:05;66.47;;;13.83;;
49450;SDS011;35336;48.400;10.886;2023-02-15T00:30:20;74.85;;;13.98;;
49450;SDS011;35336;48.400;10.886;2023-02-15T00:30:36;77.57;;;13.67;;
49450;SDS011;35336;48.400;10.886;2023-02-15T00:30:51;83.80;;;14.47;;
49450;SDS011;35336;48.400;10.886;2023-02-15T00:31:07;44.40;;;13.77;;
49450;SDS011;35336;48.400;10.886;2023-02-15T00:31:24;30.08;;;13.38;;
49450;SDS011;35336;48.400;10.886;2023-02-15T00:31:40;35.55;;;13.35;;
49450;SDS011;35336;48.400;10.886;2023-02-15T00:31:56;62.00;;;13.47;;
49450;SDS011;35336;48.400;10.886;2023-02-15T00:32:11;69.17;;;13.93;;
49450;SDS011;35336;48.400;10.886;2023-02-15T00:32:26;41.42;;;13.85;;
49450;SDS011;35336;48.400;10.886;2023-02-15T00:32:41;24.90;;;13.20;;
49450;SDS011;35336;48.400;10.886;2023-02-15T00:32:57;17.20;;;13.13;;
49450;SDS011;35336;48.400;10.886;2023-02-15T00:33:12;17.83;;;13.38;;
49450;SDS011;35336;48.400;10.886;2023-02-15T00:33:27;17.37;;;13.40;;
49450;SDS011;35336;48.400;10.886;2023-02-15T00:33:42;18.60;;;13.47;;
49450;SDS011;35336;48.400;10.886;2023-02-15T00:34:05;21.20;;;12.82;;
49450;SDS011;35336;48.400;10.886;2023-02-15T00:34:23;27.73;;;13.20;;
49450;SDS011;35336;48.400;10.886;2023-02-15T00:34:40;47.17;;;14.60;;
49450;SDS011;35336;48.400;10.886;2023-02-15T00:34:55;35.80;;;13.80;;
49450;SDS011;35336;48.400;10.886;2023-02-15T00:35:10;23.77;;;13.20;;
49450;SDS011;35336;48.400;10.886;2023-02-15T00:35:26;58.67;;;13.85;;
49450;SDS011;35336;48.400;10.886;2023-02-15T00:35:41;71.23;;;13.87;;
49450;SDS011;35336;48.400;10.886;2023-02-15T00:35:57;43.60;;;13.30;;
49450;SDS011;35336;48.400;10.886;2023-02-15T00:36:13;29.45;;;13.20;;
49450;SDS011;35336;48.400;10.886;2023-02-15T00:36:29;21.50;;;13.10;;
49450;SDS011;35336;48.400;10.886;2023-02-15T00:36:44;19.87;;;12.70;;
49450;SDS011;35336;48.400;10.886;2023-02-15T00:37:00;26.10;;;13.32;;
49450;SDS011;35336;48.400;10.886;2023-02-15T00:37:15;25.57;;;13.50;;
49450;SDS011;35336;48.400;10.886;2023-02-15T00:37:31;18.77;;;12.85;;
49450;SDS011;35336;48.400;10.886;2023-02-15T00:37:46;21.00;;;12.43;;
49450;SDS011;35336;48.400;10.886;2023-02-15T00:38:01;21.47;;;12.43;;
49450;SDS011;35336;48.400;10.886;2023-02-15T00:38:17;21.48;;;13.20;;
49450;SDS011;35336;48.400;10.886;2023-02-15T00:38:32;20.97;;;13.33;;
49450;SDS011;35336;48.400;10.886;2023-02-15T00:38:48;20.70;;;13.35;;
49450;SDS011;35336;48.400;10.886;2023-02-15T00:39:04;19.00;;;13.03;;
49450;SDS011;35336;48.400;10.886;2023-02-15T00:39:19;17.65;;;13.10;;
49450;SDS011;35336;48.400;10.886;2023-02-15T00:39:34;22.23;;;13.03;;
49450;SDS011;35336;48.400;10.886;2023-02-15T00:39:50;22.60;;;13.05;;
49450;SDS011;35336;48.400;10.886;2023-02-15T00:40:05;24.17;;;12.87;;
49450;SDS011;35336;48.400;10.886;2023-02-15T00:40:21;23.10;;;12.73;;
49450;SDS011;35336;48.400;10.886;2023-02-15T00:40:37;18.02;;;12.95;;
49450;SDS011;35336;48.400;10.886;2023-02-15T00:40:53;17.17;;;13.30;;
49450;SDS011;35336;48.400;10.886;2023-02-15T00:41:09;16.73;;;13.57;;
49450;SDS011;35336;48.400;10.886;2023-02-15T00:41:25;18.80;;;12.95;;
49450;SDS011;35336;48.400;10.886;2023-02-15T00:41:40;17.15;;;11.82;;
49450;SDS011;35336;48.400;10.886;2023-02-15T00:41:56;18.27;;;11.93;;
49450;SDS011;35336;48.400;10.886;2023-02-15T00:42:11;20.33;;;13.07;;
49450;SDS011;35336;48.400;10.886;2023-02-15T00:42:26;19.30;;;13.05;;
49450;SDS011;35336;48.400;10.886;2023-02-15T00:42:42;19.13;;;12.53;;
49450;SDS011;35336;48.400;10.886;2023-02-15T00:42:57;16.20;;;12.33;;
49450;SDS011;35336;48.400;10.886;2023-02-15T00:43:12;20.02;;;13.20;;
49450;SDS011;35336;48.400;10.886;2023-02-15T00:43:28;21.27;;;13.43;;
49450;SDS011;35336;48.400;10.886;2023-02-15T00:43:44;25.15;;;12.82;;
49450;SDS011;35336;48.400;10.886;2023-02-15T00:44:00;26.67;;;12.77;;
49450;SDS011;35336;48.400;10.886;2023-02-15T00:44:15;18.02;;;12.60;;
49450;SDS011;35336;48.400;10.886;2023-02-15T00:44:31;14.97;;;12.60;;
49450;SDS011;35336;48.400;10.886;2023-02-15T00:44:46;16.00;;;12.67;;
49450;SDS011;35336;48.400;10.886;2023-02-15T00:45:01;20.80;;;13.30;;
49450;SDS011;35336;48.400;10.886;2023-02-15T00:45:17;22.17;;;13.93;;
49450;SDS011;35336;48.400;10.886;2023-02-15T00:45:32;21.03;;;13.07;;
49450;SDS011;35336;48.400;10.886;2023-02-15T00:45:47;22.45;;;12.63;;
49450;SDS011;35336;48.400;10.886;2023-02-15T00:46:04;24.27;;;12.70;;
49450;SDS011;35336;48.400;10.886;2023-02-15T00:46:20;21.23;;;12.27;;
49450;SDS011;35336;48.400;10.886;2023-02-15T00:46:35;19.48;;;12.32;;
49450;SDS011;35336;48.400;10.886;2023-02-15T00:46:51;23.03;;;13.07;;
49450;SDS011;35336;48.400;10.886;2023-02-15T00:47:06;20.33;;;13.30;;
49450;SDS011;35336;48.400;10.886;2023-02-15T00:47:21;19.57;;;13.20;;
49450;SDS011;35336;48.400;10.886;2023-02-15T00:47:37;19.67;;;12.73;;
49450;SDS011;35336;48.400;10.886;2023-02-15T00:47:52;22.90;;;12.23;;
49450;SDS011;35336;48.400;10.886;2023-02-15T00:48:07;37.20;;;13.00;;
49450;SDS011;35336;48.400;10.886;2023-02-15T00:48:23;45.53;;;13.67;;
49450;SDS011;35336;48.400;10.886;2023-02-15T00:48:38;44.20;;;13.98;;
49450;SDS011;35336;48.400;10.886;2023-02-15T00:48:54;31.73;;;13.47;;
49450;SDS011;35336;48.400;10.886;2023-02-15T00:49:09;23.90;;;13.48;;
49450;SDS011;35336;48.400;10.886;2023-02-15T00:49:25;30.50;;;14.07;;
49450;SDS011;35336;48.400;10.886;2023-02-15T00:49:40;35.60;;;14.20;;
49450;SDS011;35336;48.400;10.886;2023-02-15T00:49:56;32.80;;;14.33;;
49450;SDS011;35336;48.400;10.886;2023-02-15T00:50:11;28.60;;;13.95;;
49450;SDS011;35336;48.400;10.886;2023-02-15T00:50:26;23.23;;;13.87;;
49450;SDS011;35336;48.400;10.886;2023-02-15T00:50:44;17.23;;;13.03;;
49450;SDS011;35336;48.400;10.886;2023-02-15T00:51:00;19.48;;;12.98;;
49450;SDS011;35336;48.400;10.886;2023-02-15T00:51:16;22.60;;;13.60;;
49450;SDS011;35336;48.400;10.886;2023-02-15T00:51:32;19.38;;;13.32;;
49450;SDS011;35336;48.400;10.886;2023-02-15T00:51:47;18.88;;;13.48;;
49450;SDS011;35336;48.400;10.886;2023-02-15T00:52:02;21.47;;;13.30;;
49450;SDS011;35336;48.400;10.886;2023-02-15T00:52:18;20.45;;;12.88;;
49450;SDS011;35336;48.400;10.886;2023-02-15T00:52:33;19.67;;;13.20;;
49450;SDS011;35336;48.400;10.886;2023-02-15T00:52:49;24.33;;;13.70;;
49450;SDS011;35336;48.400;10.886;2023-02-15T00:53:04;24.83;;;13.97;;
49450;SDS011;35336;48.400;10.886;2023-02-15T00:53:20;21.13;;;13.37;;
49450;SDS011;35336;48.400;10.886;2023-02-15T00:53:36;16.90;;;12.70;;
49450;SDS011;35336;48.400;10.886;2023-02-15T00:53:51;18.73;;;12.97;;
49450;SDS011;35336;48.400;10.886;2023-02-15T00:54:07;18.70;;;13.35;;
49450;SDS011;35336;48.400;10.886;2023-02-15T00:54:22;21.40;;;13.50;;
49450;SDS011;35336;48.400;10.886;2023-02-15T00:54:37;27.33;;;14.10;;
49450;SDS011;35336;48.400;10.886;2023-02-15T00:54:53;21.05;;;13.57;;
49450;SDS011;35336;48.400;10.886;2023-02-15T00:55:08;17.00;;;13.07;;
49450;SDS011;35336;48.400;10.886;2023-02-15T00:55:23;21.70;;;13.57;;
49450;SDS011;35336;48.400;10.886;2023-02-15T00:55:39;44.15;;;13.93;;
49450;SDS011;35336;48.400;10.886;2023-02-15T00:55:54;42.60;;;13.40;;
49450;SDS011;35336;48.400;10.886;2023-02-15T00:56:10;30.05;;;13.40;;
49450;SDS011;35336;48.400;10.886;2023-02-15T00:56:26;30.88;;;13.85;;
49450;SDS011;35336;48.400;10.886;2023-02-15T00:56:41;24.60;;;13.73;;
49450;SDS011;35336;48.400;10.886;2023-02-15T00:56:56;24.42;;;14.00;;
49450;SDS011;35336;48.400;10.886;2023-02-15T00:57:12;22.77;;;13.83;;
49450;SDS011;35336;48.400;10.886;2023-02-15T00:57:27;21.57;;;13.47;;
49450;SDS011;35336;48.400;10.886;2023-02-15T00:57:42;19.40;;;12.60;;
49450;SDS011;35336;48.400;10.886;2023-02-15T00:57:58;22.38;;;12.90;;
49450;SDS011;35336;48.400;10.886;2023-02-15T00:58:13;23.13;;;13.30;;
49450;SDS011;35336;48.400;10.886;2023-02-15T00:58:29;25.60;;;13.20;;
49450;SDS011;35336;48.400;10.886;2023-02-15T00:58:44;25.30;;;13.27;;
49450;SDS011;35336;48.400;10.886;2023-02-15T00:59:00;20.43;;;13.77;;
49450;SDS011;35336;48.400;10.886;2023-02-15T00:59:16;18.88;;;13.95;;
49450;SDS011;35336;48.400;10.886;2023-02-15T00:59:31;26.47;;;13.57;;
49450;SDS011;35336;48.400;10.886;2023-02-15T00:59:46;31.00;;;13.07;;
49450;SDS011;35336;48.400;10.886;2023-02-15T01:00:02;23.95;;;12.88;;
49450;SDS011;35336;48.400;10.886;2023-02-15T01:00:17;21.98;;;13.38;;
49450;SDS011;35336;48.400;10.886;2023-02-15T01:00:33;33.63;;;13.53;;
49450;SDS011;35336;48.400;10.886;2023-02-15T01:00:48;31.60;;;13.35;;
49450;SDS011;35336;48.400;10.886;2023-02-15T01:01:05;20.03;;;12.50;;
49450;SDS011;35336;48.400;10.886;2023-02-15T01:01:22;17.45;;;12.52;;
49450;SDS011;35336;48.400;10.886;2023-02-15T01:01:38;20.70;;;13.27;;
49450;SDS011;35336;48.400;10.886;2023-02-15T01:01:53;25.35;;;13.45;;
49450;SDS011;35336;48.400;10.886;2023-02-15T01:02:08;20.33;;;13.20;;
49450;SDS011;35336;48.400;10.886;2023-02-15T01:02:24;15.83;;;12.80;;
49450;SDS011;35336;48.400;10.886;2023-02-15T01:02:39;18.52;;;12.95;;
49450;SDS011;35336;48.400;10.886;2023-02-15T01:02:54;22.00;;;13.23;;
49450;SDS011;35336;48.400;10.886;2023-02-15T01:03:10;24.30;;;13.50;;
49450;SDS011;35336;48.400;10.886;2023-02-15T01:03:26;19.88;;;12.63;;
49450;SDS011;35336;48.400;10.886;2023-02-15T01:03:41;16.45;;;12.43;;
49450;SDS011;35336;48.400;10.886;2023-02-15T01:03:57;21.05;;;13.20;;
49450;SDS011;35336;48.400;10.886;2023-02-15T01:04:13;26.47;;;13.37;;
49450;SDS011;35336;48.400;10.886;2023-02-15T01:04:28;24.97;;;13.37;;
49450;SDS011;35336;48.400;10.886;2023-02-15T01:04:43;19.52;;;12.82;;
49450;SDS011;35336;48.400;10.886;2023-02-15T01:04:58;20.33;;;13.33;;
49450;SDS011;35336;48.400;10.886;2023-02-15T01:05:14;21.67;;;13.83;;
49450;SDS011;35336;48.400;10.886;2023-02-15T01:05:30;22.83;;;13.23;;
49450;SDS011;35336;48.400;10.886;2023-02-15T01:05:46;23.75;;;12.95;;
49450;SDS011;35336;48.400;10.886;2023-02-15T01:06:02;19.98;;;12.85;;
49450;SDS011;35336;48.400;10.886;2023-02-15T01:06:19;17.33;;;13.05;;
49450;SDS011;35336;48.400;10.886;2023-02-15T01:06:34;17.85;;;12.55;;
49450;SDS011;35336;48.400;10.886;2023-02-15T01:06:50;17.03;;;11.97;;
49450;SDS011;35336;48.400;10.886;2023-02-15T01:07:05;17.42;;;12.82;;
49450;SDS011;35336;48.400;10.886;2023-02-15T01:07:20;19.27;;;13.13;;
49450;SDS011;35336;48.400;10.886;2023-02-15T01:07:36;21.97;;;13.00;;
49450;SDS011;35336;48.400;10.886;2023-02-15T01:07:51;22.83;;;13.18;;
49450;SDS011;35336;48.400;10.886;2023-02-15T01:08:06;24.47;;;13.37;;
49450;SDS011;35336;48.400;10.886;2023-02-15T01:08:22;29.50;;;14.07;;
49450;SDS011;35336;48.400;10.886;2023-02-15T01:08:37;33.50;;;14.23;;
49450;SDS011;35336;48.400;10.886;2023-02-15T01:08:53;38.22;;;14.10;;
49450;SDS011;35336;48.400;10.886;2023-02-15T01:09:09;30.43;;;13.87;;
49450;SDS011;35336;48.400;10.886;2023-02-15T01:09:24;23.30;;;13.55;;
49450;SDS011;35336;48.400;10.886;2023-02-15T01:09:39;23.90;;;13.47;;
49450;SDS011;35336;48.400;10.886;2023-02-15T01:09:55;23.58;;;13.75;;
49450;SDS011;35336;48.400;10.886;2023-02-15T01:10:10;20.83;;;13.60;;
49450;SDS011;35336;48.400;10.886;2023-02-15T01:10:26;19.23;;;13.70;;
49450;SDS011;35336;48.400;10.886;2023-02-15T01:10:41;19.05;;;13.80;;
49450;SDS011;35336;48.400;10.886;2023-02-15T01:11:02;22.60;;;14.20;;
49450;SDS011;35336;48.400;10.886;2023-02-15T01:11:22;41.25;;;14.48;;
49450;SDS011;35336;48.400;10.886;2023-02-15T01:11:38;36.45;;;14.23;;
49450;SDS011;35336;48.400;10.886;2023-02-15T01:11:53;31.93;;;13.70;;
49450;SDS011;35336;48.400;10.886;2023-02-15T01:12:08;27.57;;;13.73;;
49450;SDS011;35336;48.400;10.886;2023-02-15T01:12:24;24.45;;;14.05;;
49450;SDS011;35336;48.400;10.886;2023-02-15T01:12:39;23.10;;;14.20;;
49450;SDS011;35336;48.400;10.886;2023-02-15T01:12:55;20.87;;;13.67;;
49450;SDS011;35336;48.400;10.886;2023-02-15T01:13:11;23.58;;;14.02;;
49450;SDS011;35336;48.400;10.886;2023-02-15T01:13:27;33.65;;;14.27;;
49450;SDS011;35336;48.400;10.886;2023-02-15T01:13:42;45.80;;;15.00;;
49450;SDS011;35336;48.400;10.886;2023-02-15T01:13:57;43.20;;;15.03;;
49450;SDS011;35336;48.400;10.886;2023-02-15T01:14:13;33.65;;;14.15;;
49450;SDS011;35336;48.400;10.886;2023-02-15T01:14:28;32.23;;;14.60;;
49450;SDS011;35336;48.400;10.886;2023-02-15T01:14:44;34.47;;;15.40;;
49450;SDS011;35336;48.400;10.886;2023-02-15T01:14:59;37.20;;;14.67;;
49450;SDS011;35336;48.400;10.886;2023-02-15T01:15:15;33.88;;;14.10;;
49450;SDS011;35336;48.400;10.886;2023-02-15T01:15:30;37.60;;;15.53;;
49450;SDS011;35336;48.400;10.886;2023-02-15T01:15:45;48.03;;;15.90;;
49450;SDS011;35336;48.400;10.886;2023-02-15T01:16:07;31.45;;;14.57;;
49450;SDS011;35336;48.400;10.886;2023-02-15T01:16:24;20.63;;;13.87;;
49450;SDS011;35336;48.400;10.886;2023-02-15T01:16:41;18.92;;;13.80;;
49450;SDS011;35336;48.400;10.886;2023-02-15T01:16:56;21.83;;;14.10;;
49450;SDS011;35336;48.400;10.886;2023-02-15T01:17:11;23.48;;;14.52;;
49450;SDS011;35336;48.400;10.886;2023-02-15T01:17:27;22.07;;;14.87;;
49450;SDS011;35336;48.400;10.886;2023-02-15T01:17:42;20.57;;;15.00;;
49450;SDS011;35336;48.400;10.886;2023-02-15T01:17:57;19.35;;;14.70;;
49450;SDS011;35336;48.400;10.886;2023-02-15T01:18:13;24.37;;;14.20;;
49450;SDS011;35336;48.400;10.886;2023-02-15T01:18:28;27.73;;;14.50;;
49450;SDS011;35336;48.400;10.886;2023-02-15T01:18:43;27.88;;;15.00;;
49450;SDS011;35336;48.400;10.886;2023-02-15T01:18:59;24.00;;;14.98;;
49450;SDS011;35336;48.400;10.886;2023-02-15T01:19:15;22.03;;;14.60;;
49450;SDS011;35336;48.400;10.886;2023-02-15T01:19:30;23.17;;;14.07;;
49450;SDS011;35336;48.400;10.886;2023-02-15T01:19:45;25.40;;;14.00;;
49450;SDS011;35336;48.400;10.886;2023-02-15T01:20:01;23.63;;;14.80;;
49450;SDS011;35336;48.400;10.886;2023-02-15T01:20:17;19.02;;;14.63;;
49450;SDS011;35336;48.400;10.886;2023-02-15T01:20:38;17.90;;;14.00;;
49450;SDS011;35336;48.400;10.886;2023-02-15T01:20:54;16.40;;;13.85;;
49450;SDS011;35336;48.400;10.886;2023-02-15T01:21:14;16.40;;;13.40;;
49450;SDS011;35336;48.400;10.886;2023-02-15T01:21:34;18.73;;;13.90;;
49450;SDS011;35336;48.400;10.886;2023-02-15T01:21:50;26.63;;;13.67;;
49450;SDS011;35336;48.400;10.886;2023-02-15T01:22:05;27.60;;;13.80;;
49450;SDS011;35336;48.400;10.886;2023-02-15T01:22:20;19.23;;;13.48;;
49450;SDS011;35336;48.400;10.886;2023-02-15T01:22:36;15.73;;;13.07;;
49450;SDS011;35336;48.400;10.886;2023-02-15T01:22:51;22.60;;;13.70;;
49450;SDS011;35336;48.400;10.886;2023-02-15T01:23:07;27.95;;;14.65;;
49450;SDS011;35336;48.400;10.886;2023-02-15T01:23:23;22.35;;;13.98;;
49450;SDS011;35336;48.400;10.886;2023-02-15T01:23:38;22.92;;;13.98;;
49450;SDS011;35336;48.400;10.886;2023-02-15T01:23:54;26.10;;;14.45;;
49450;SDS011;35336;48.400;10.886;2023-02-15T01:24:13;27.20;;;13.70;;
49450;SDS011;35336;48.400;10.886;2023-02-15T01:24:28;27.95;;;14.40;;
49450;SDS011;35336;48.400;10.886;2023-02-15T01:24:44;26.43;;;14.87;;
49450;SDS011;35336;48.400;10.886;2023-02-15T01:24:59;23.00;;;13.57;;
49450;SDS011;35336;48.400;10.886;2023-02-15T01:25:15;22.80;;;13.13;;
49450;SDS011;35336;48.400;10.886;2023-02-15T01:25:32;26.45;;;13.15;;
49450;SDS011;35336;48.400;10.886;2023-02-15T01:25:48;24.60;;;13.57;;
49450;SDS011;35336;48.400;10.886;2023-02-15T01:26:04;18.63;;;13.60;;
49450;SDS011;35336;48.400;10.886;2023-02-15T01:26:19;16.98;;;13.43;;
49450;SDS011;35336;48.400;10.886;2023-02-15T01:26:34;18.40;;;13.47;;
49450;SDS011;35336;48.400;10.886;2023-02-15T01:26:50;17.87;;;12.60;;
49450;SDS011;35336;48.400;10.886;2023-02-15T01:27:05;15.77;;;12.18;;
49450;SDS011;35336;48.400;10.886;2023-02-15T01:27:20;20.00;;;12.93;;
49450;SDS011;35336;48.400;10.886;2023-02-15T01:27:36;28.50;;;13.77;;
49450;SDS011;35336;48.400;10.886;2023-02-15T01:27:51;32.25;;;13.98;;
49450;SDS011;35336;48.400;10.886;2023-02-15T01:28:06;32.80;;;13.70;;
49450;SDS011;35336;48.400;10.886;2023-02-15T01:28:22;26.15;;;13.65;;
49450;SDS011;35336;48.400;10.886;2023-02-15T01:28:37;21.07;;;13.37;;
49450;SDS011;35336;48.400;10.886;2023-02-15T01:28:53;22.02;;;13.02;;
49450;SDS011;35336;48.400;10.886;2023-02-15T01:29:08;21.27;;;13.10;;
49450;SDS011;35336;48.400;10.886;2023-02-15T01:29:23;19.07;;;12.60;;
49450;SDS011;35336;48.400;10.886;2023-02-15T01:29:39;20.50;;;13.07;;
49450;SDS011;35336;48.400;10.886;2023-02-15T01:29:54;25.13;;;13.73;;
49450;SDS011;35336;48.400;10.886;2023-02-15T01:30:09;20.80;;;13.23;;
49450;SDS011;35336;48.400;10.886;2023-02-15T01:30:25;18.92;;;12.52;;
49450;SDS011;35336;48.400;10.886;2023-02-15T01:30:41;22.92;;;12.73;;
49450;SDS011;35336;48.400;10.886;2023-02-15T01:30:56;27.23;;;13.17;;